createdAt,value
2022-09-26T00:01:01.767Z,24.10
2022-09-26T00:04:23.375Z,26.10
2022-09-26T00:07:50.658Z,25.30
2022-09-26T00:11:37.900Z,24.60
2022-09-26T00:15:04.190Z,25.20
2022-09-26T00:18:43.793Z,26.20
2022-09-26T00:22:31.262Z,24.30
2022-09-26T00:26:18.763Z,26.30
2022-09-26T00:30:06.462Z,24.40
2022-09-26T00:33:39.726Z,22.80
2022-09-26T00:37:27.246Z,23.50
2022-09-26T00:41:14.684Z,26.20
2022-09-26T00:45:00.355Z,26.20
2022-09-26T00:48:41.983Z,27.00
2022-09-26T00:51:49.566Z,25.70
2022-09-26T00:55:09.202Z,25.90
2022-09-26T00:58:27.635Z,26.00
2022-09-26T01:02:05.390Z,27.30
2022-09-26T01:05:32.964Z,25.60
2022-09-26T01:09:20.410Z,24.50
2022-09-26T01:13:07.692Z,23.10
2022-09-26T01:16:45.235Z,24.60
2022-09-26T01:20:11.408Z,24.70
2022-09-26T01:23:51.539Z,26.50
2022-09-26T01:27:47.954Z,22.10
2022-09-26T01:31:35.311Z,24.30
2022-09-26T01:35:34.597Z,23.70
2022-09-26T01:39:18.660Z,25.90
2022-09-26T01:43:07.125Z,25.60
2022-09-26T01:46:19.353Z,28.00
2022-09-26T01:49:53.395Z,28.80
2022-09-26T01:53:43.832Z,27.40
2022-09-26T01:57:12.958Z,26.50
2022-09-26T02:00:15.496Z,28.10
2022-09-26T02:04:02.955Z,28.30
2022-09-26T02:07:06.709Z,25.30
2022-09-26T02:10:34.929Z,25.40
2022-09-26T02:14:23.772Z,22.50
2022-09-26T02:17:57.601Z,22.90
2022-09-26T02:21:11.322Z,28.00
2022-09-26T02:24:11.136Z,26.00
2022-09-26T02:27:58.742Z,25.60
2022-09-26T02:30:54.851Z,27.40
2022-09-26T02:34:11.687Z,29.40
2022-09-26T02:37:39.027Z,29.90
2022-09-26T02:41:24.973Z,25.90
2022-09-26T02:44:42.232Z,27.40
2022-09-26T02:48:03.203Z,30.00
2022-09-26T02:51:29.710Z,34.10
2022-09-26T02:55:05.053Z,32.80
2022-09-26T02:58:26.595Z,32.40
2022-09-26T03:02:09.067Z,32.30
2022-09-26T03:05:49.286Z,30.20
2022-09-26T03:08:58.966Z,28.60
2022-09-26T03:12:29.687Z,28.50
2022-09-26T03:15:47.552Z,25.90
2022-09-26T03:19:07.942Z,24.60
2022-09-26T03:21:57.161Z,27.40
2022-09-26T03:24:36.772Z,26.40
2022-09-26T03:28:23.084Z,25.30
2022-09-26T03:32:10.523Z,22.40
2022-09-26T03:35:38.053Z,26.30
2022-09-26T03:39:05.444Z,26.60
2022-09-26T03:42:54.300Z,26.50
2022-09-26T03:46:41.871Z,23.50
2022-09-26T03:50:28.394Z,24.90
2022-09-26T03:53:55.801Z,25.60
2022-09-26T03:57:12.078Z,26.50
2022-09-26T04:00:58.577Z,28.90
2022-09-26T04:03:51.603Z,32.40
2022-09-26T04:07:39.033Z,30.60
2022-09-26T04:10:26.939Z,28.10
2022-09-26T04:14:20.302Z,26.00
2022-09-26T04:17:48.796Z,25.50
2022-09-26T04:21:16.345Z,24.10
2022-09-26T04:24:47.432Z,30.00
2022-09-26T04:28:27.986Z,32.40
2022-09-26T04:32:15.482Z,28.70
2022-09-26T04:36:01.852Z,27.90
2022-09-26T04:39:29.948Z,21.90
2022-09-26T04:43:17.572Z,20.10
2022-09-26T04:46:56.085Z,19.40
2022-09-26T04:50:14.684Z,23.40
2022-09-26T04:53:06.341Z,24.50
2022-09-26T04:55:54.401Z,18.80
2022-09-26T04:59:15.385Z,18.10
2022-09-26T05:02:41.196Z,20.90
2022-09-26T05:06:29.068Z,20.30
2022-09-26T05:09:56.955Z,21.60
2022-09-26T05:13:03.046Z,21.60
2022-09-26T05:16:04.061Z,24.40
2022-09-26T05:19:42.247Z,27.50
2022-09-26T05:23:14.277Z,28.10
2022-09-26T05:26:41.852Z,24.10
2022-09-26T05:30:08.235Z,23.80
2022-09-26T05:33:56.868Z,22.20
2022-09-26T05:37:36.955Z,27.00
2022-09-26T05:41:24.657Z,30.60
2022-09-26T05:45:03.985Z,28.60
2022-09-26T05:48:44.131Z,26.60
2022-09-26T05:52:17.184Z,24.40
2022-09-26T05:55:18.034Z,25.60
2022-09-26T05:58:46.646Z,26.10
2022-09-26T06:02:36.225Z,26.20
2022-09-26T06:06:16.827Z,26.00
2022-09-26T06:08:53.104Z,27.40
2022-09-26T06:12:38.717Z,25.30
2022-09-26T06:16:26.337Z,27.40
2022-09-26T06:19:32.335Z,26.70
2022-09-26T06:23:05.221Z,25.60
2022-09-26T06:26:03.603Z,23.90
2022-09-26T06:29:39.492Z,22.90
2022-09-26T06:33:31.099Z,24.60
2022-09-26T06:37:22.625Z,24.20
2022-09-26T06:41:02.945Z,24.30
2022-09-26T06:44:39.565Z,30.40
2022-09-26T06:48:36.272Z,23.90
2022-09-26T06:52:21.607Z,22.90
2022-09-26T06:56:02.261Z,25.10
2022-09-26T06:59:49.855Z,22.70
2022-09-26T07:03:45.330Z,23.30
2022-09-26T07:07:46.414Z,25.40
2022-09-26T07:15:11.589Z,25.70
2022-09-26T07:18:05.800Z,24.40
2022-09-26T07:21:51.931Z,22.80
2022-09-26T07:25:38.816Z,22.80
2022-09-26T07:29:16.476Z,21.20
2022-09-26T07:33:04.104Z,22.60
2022-09-26T07:36:44.656Z,22.10
2022-09-26T07:40:07.414Z,21.50
2022-09-26T07:47:53.556Z,22.20
2022-09-26T07:51:39.177Z,21.20
2022-09-26T07:55:19.946Z,20.10
2022-09-26T07:59:19.786Z,16.90
2022-09-26T08:03:22.277Z,19.50
2022-09-26T08:07:10.810Z,20.80
2022-09-26T08:11:03.456Z,25.00
2022-09-26T08:14:51.921Z,23.60
2022-09-26T08:18:29.878Z,22.20
2022-09-26T08:22:17.373Z,22.00
2022-09-26T08:26:05.109Z,21.20
2022-09-26T08:29:41.861Z,19.10
2022-09-26T08:33:09.817Z,20.00
2022-09-26T08:36:30.358Z,18.20
2022-09-26T08:40:21.017Z,16.50
2022-09-26T08:44:13.185Z,13.50
2022-09-26T08:48:01.931Z,13.90
2022-09-26T08:52:04.869Z,14.40
2022-09-26T08:56:01.457Z,14.10
2022-09-26T08:59:49.437Z,14.20
2022-09-26T09:03:37.559Z,14.70
2022-09-26T09:07:21.019Z,15.30
2022-09-26T09:10:37.090Z,17.00
2022-09-26T09:14:36.936Z,16.80
2022-09-26T09:18:28.128Z,15.40
2022-09-26T09:22:19.416Z,14.10
2022-09-26T09:25:45.027Z,15.50
2022-09-26T09:29:35.977Z,14.40
2022-09-26T09:33:27.127Z,15.90
2022-09-26T09:37:17.885Z,15.10
2022-09-26T09:41:07.807Z,15.70
2022-09-26T09:45:14.142Z,14.90
2022-09-26T09:49:01.671Z,12.10
2022-09-26T09:52:42.586Z,11.60
2022-09-26T09:56:31.819Z,10.70
2022-09-26T10:00:51.378Z,10.30
2022-09-26T10:04:40.352Z,10.60
2022-09-26T10:08:20.711Z,10.90
2022-09-26T10:12:23.336Z,14.00
2022-09-26T10:16:11.854Z,14.50
2022-09-26T10:20:13.273Z,13.70
2022-09-26T10:24:06.256Z,15.20
2022-09-26T10:28:12.364Z,14.00
2022-09-26T10:32:03.042Z,14.30
2022-09-26T10:36:02.881Z,14.20
2022-09-26T10:39:55.172Z,13.00
2022-09-26T10:43:41.812Z,14.10
2022-09-26T10:47:19.138Z,13.90
2022-09-26T10:51:05.299Z,15.50
2022-09-26T10:54:35.352Z,15.50
2022-09-26T10:58:14.039Z,14.40
2022-09-26T11:02:05.723Z,13.10
2022-09-26T11:05:54.772Z,13.90
2022-09-26T11:09:28.666Z,14.90
2022-09-26T11:13:21.527Z,14.20
2022-09-26T11:17:09.257Z,12.60
2022-09-26T11:21:00.420Z,12.70
2022-09-26T11:24:56.441Z,11.40
2022-09-26T11:28:45.549Z,8.70
2022-09-26T11:32:09.425Z,9.30
2022-09-26T11:35:44.194Z,8.00
2022-09-26T11:39:19.567Z,8.60
2022-09-26T11:43:03.454Z,9.00
2022-09-26T11:46:35.513Z,9.00
2022-09-26T11:50:35.560Z,7.70
2022-09-26T11:54:32.933Z,9.90
2022-09-26T11:58:38.499Z,10.80
2022-09-26T12:02:36.485Z,7.10
2022-09-26T12:06:23.357Z,6.90
2022-09-26T12:10:22.835Z,8.30
2022-09-26T12:14:24.898Z,8.40
2022-09-26T12:17:40.436Z,7.80
2022-09-26T12:21:08.013Z,7.00
2022-09-26T12:24:55.283Z,8.20
2022-09-26T12:28:41.944Z,7.70
2022-09-26T12:32:36.555Z,7.90
2022-09-26T12:36:32.121Z,7.80
2022-09-26T12:40:01.383Z,8.10
2022-09-26T12:43:40.104Z,7.90
2022-09-26T12:47:19.515Z,8.10
2022-09-26T12:51:02.343Z,7.90
2022-09-26T12:54:50.319Z,8.30
2022-09-26T12:58:44.018Z,6.70
2022-09-26T13:02:31.920Z,7.50
2022-09-26T13:06:25.660Z,6.90
2022-09-26T13:09:59.732Z,6.90
2022-09-26T13:13:43.251Z,5.70
2022-09-26T13:17:23.466Z,4.50
2022-09-26T13:21:03.091Z,4.70
2022-09-26T13:24:43.704Z,4.00
2022-09-26T13:28:31.534Z,3.10
2022-09-26T13:32:19.055Z,2.70
2022-09-26T13:35:53.019Z,2.40
2022-09-26T13:39:46.553Z,2.10
2022-09-26T13:43:30.943Z,1.80
2022-09-26T13:47:14.380Z,1.60
2022-09-26T13:50:32.509Z,1.50
2022-09-26T13:53:58.779Z,1.40
2022-09-26T13:57:45.228Z,1.70
2022-09-26T14:01:33.304Z,1.30
2022-09-26T14:05:21.172Z,1.40
2022-09-26T14:09:19.114Z,1.70
2022-09-26T14:13:32.640Z,1.80
2022-09-26T14:17:07.124Z,1.60
2022-09-26T14:20:38.190Z,1.10
2022-09-26T14:24:42.635Z,1.10
2022-09-26T14:28:32.176Z,1.20
2022-09-26T14:32:25.769Z,1.20
2022-09-26T14:36:16.520Z,1.30
2022-09-26T14:40:04.120Z,1.10
2022-09-26T14:43:57.448Z,1.10
2022-09-26T14:47:45.270Z,1.20
2022-09-26T14:51:41.628Z,0.90
2022-09-26T14:55:29.385Z,1.20
2022-09-26T14:59:18.457Z,1.10
2022-09-26T15:03:08.983Z,1.10
2022-09-26T15:06:57.189Z,1.00
2022-09-26T15:10:44.779Z,1.10
2022-09-26T15:14:38.879Z,1.50
2022-09-26T15:17:53.654Z,1.50
2022-09-26T15:21:27.919Z,2.40
2022-09-26T15:25:20.288Z,2.00
2022-09-26T15:28:49.916Z,2.10
2022-09-26T15:32:02.601Z,2.70
2022-09-26T15:35:51.164Z,2.30
2022-09-26T15:39:17.803Z,1.80
2022-09-26T15:42:52.937Z,2.10
2022-09-26T15:46:13.031Z,2.10
2022-09-26T15:49:51.794Z,2.10
2022-09-26T15:53:33.351Z,1.60
2022-09-26T15:57:24.104Z,1.70
2022-09-26T16:00:57.669Z,2.00
2022-09-26T16:05:04.262Z,1.70
2022-09-26T16:08:54.723Z,2.00
2022-09-26T16:12:45.090Z,2.60
2022-09-26T16:16:27.099Z,1.80
2022-09-26T16:20:06.597Z,2.00
2022-09-26T16:23:51.256Z,3.20
2022-09-26T16:27:39.635Z,2.80
2022-09-26T16:31:21.559Z,3.30
2022-09-26T16:35:16.502Z,2.60
2022-09-26T16:39:04.100Z,2.90
2022-09-26T16:42:58.863Z,3.30
2022-09-26T16:46:54.430Z,2.60
2022-09-26T16:51:05.603Z,3.50
2022-09-26T16:54:55.659Z,2.90
2022-09-26T16:58:36.435Z,3.20
2022-09-26T17:02:28.931Z,5.90
2022-09-26T17:05:46.045Z,9.20
2022-09-26T17:09:18.125Z,7.10
2022-09-26T17:13:08.196Z,5.90
2022-09-26T17:16:39.788Z,7.80
2022-09-26T17:20:08.173Z,10.40
2022-09-26T17:23:57.933Z,23.80
2022-09-26T17:27:21.069Z,18.10
2022-09-26T17:30:55.045Z,25.50
2022-09-26T17:34:36.975Z,32.80
2022-09-26T17:38:05.026Z,31.30
2022-09-26T17:41:12.825Z,30.50
2022-09-26T17:44:41.292Z,39.50
2022-09-26T17:48:25.385Z,40.90
2022-09-26T17:51:32.598Z,32.40
2022-09-26T17:55:23.250Z,27.10
2022-09-26T17:58:52.594Z,24.70
2022-09-26T18:02:42.148Z,33.00
2022-09-26T18:06:05.242Z,38.40
2022-09-26T18:09:40.215Z,56.80
2022-09-26T18:13:13.351Z,68.70
2022-09-26T18:16:38.578Z,74.40
2022-09-26T18:19:58.802Z,43.80
2022-09-26T18:23:18.289Z,31.60
2022-09-26T18:26:43.979Z,31.70
2022-09-26T18:30:18.694Z,32.90
2022-09-26T18:33:19.058Z,44.10
2022-09-26T18:36:47.361Z,31.80
2022-09-26T18:40:36.288Z,38.20
2022-09-26T18:43:32.099Z,43.10
2022-09-26T18:46:48.787Z,42.60
2022-09-26T18:50:27.156Z,48.20
2022-09-26T18:53:26.913Z,44.00
2022-09-26T18:57:08.279Z,45.00
2022-09-26T19:00:48.285Z,44.80
2022-09-26T19:04:16.335Z,48.20
2022-09-26T19:07:33.412Z,48.80
2022-09-26T19:10:26.630Z,46.80
2022-09-26T19:13:59.205Z,45.40
2022-09-26T19:17:33.262Z,42.70
2022-09-26T19:21:01.090Z,51.70
2022-09-26T19:24:51.133Z,49.10
2022-09-26T19:28:30.530Z,43.30
2022-09-26T19:32:18.367Z,46.50
2022-09-26T19:35:46.209Z,42.50
2022-09-26T19:38:58.938Z,42.70
2022-09-26T19:42:40.641Z,40.00
2022-09-26T19:46:29.055Z,42.10
2022-09-26T19:50:10.493Z,39.30
2022-09-26T19:52:51.305Z,39.30
2022-09-26T19:56:12.665Z,42.30
2022-09-26T19:59:36.666Z,39.50
2022-09-26T20:03:04.962Z,37.90
2022-09-26T20:06:14.674Z,37.40
2022-09-26T20:10:03.609Z,38.20
2022-09-26T20:13:05.674Z,33.20
2022-09-26T20:15:58.692Z,31.30
2022-09-26T20:19:15.469Z,32.20
2022-09-26T20:22:23.071Z,39.60
2022-09-26T20:25:38.641Z,35.90
2022-09-26T20:28:45.301Z,33.30
2022-09-26T20:32:23.532Z,33.70
2022-09-26T20:36:08.772Z,31.40
2022-09-26T20:39:37.048Z,30.80
2022-09-26T20:43:18.570Z,34.70
2022-09-26T20:46:54.148Z,33.90
2022-09-26T20:50:34.376Z,31.50
2022-09-26T20:54:16.007Z,29.50
2022-09-26T20:57:33.700Z,29.60
2022-09-26T21:01:21.975Z,26.50
2022-09-26T21:05:00.337Z,23.40
2022-09-26T21:08:36.284Z,22.50
2022-09-26T21:11:47.865Z,23.10
2022-09-26T21:15:28.729Z,23.30
2022-09-26T21:19:16.716Z,24.90
2022-09-26T21:22:16.260Z,22.00
2022-09-26T21:25:38.232Z,23.40
2022-09-26T21:29:25.931Z,22.00
2022-09-26T21:33:13.452Z,23.00
2022-09-26T21:36:13.811Z,24.30
2022-09-26T21:39:45.340Z,24.10
2022-09-26T21:43:26.627Z,23.90
2022-09-26T21:47:14.298Z,22.50
2022-09-26T21:50:43.335Z,22.20
2022-09-26T21:54:10.881Z,21.40
2022-09-26T21:57:58.750Z,21.70
2022-09-26T22:01:37.614Z,22.10
2022-09-26T22:05:25.178Z,23.70
2022-09-26T22:08:01.820Z,25.90
2022-09-26T22:11:49.541Z,25.30
2022-09-26T22:15:27.524Z,26.90
2022-09-26T22:19:08.917Z,26.50
2022-09-26T22:22:08.477Z,26.80
2022-09-26T22:25:26.637Z,27.40
2022-09-26T22:28:52.549Z,27.80
2022-09-26T22:32:00.835Z,28.90
2022-09-26T22:35:31.981Z,27.10
2022-09-26T22:38:46.164Z,29.30
2022-09-26T22:42:23.668Z,29.20
2022-09-26T22:46:03.945Z,29.10
2022-09-26T22:49:11.056Z,26.10
2022-09-26T22:52:58.312Z,26.50
2022-09-26T22:56:26.396Z,24.00
2022-09-26T23:00:05.151Z,25.60
2022-09-26T23:03:35.241Z,28.60
2022-09-26T23:07:02.713Z,28.00
2022-09-26T23:10:40.215Z,27.30
2022-09-26T23:14:21.230Z,30.10
2022-09-26T23:17:01.204Z,31.70
2022-09-26T23:19:40.728Z,30.10
2022-09-26T23:22:39.256Z,32.40
2022-09-26T23:26:18.814Z,33.20
2022-09-26T23:29:58.763Z,30.70
2022-09-26T23:33:01.061Z,32.40
2022-09-26T23:36:32.205Z,33.70
2022-09-26T23:39:19.154Z,37.90
2022-09-26T23:42:46.937Z,37.40
2022-09-26T23:45:55.721Z,35.50
2022-09-26T23:49:21.146Z,33.40
2022-09-26T23:52:21.749Z,33.60
2022-09-26T23:55:59.208Z,36.30
2022-09-26T23:59:46.669Z,33.30
